Terminal Aerodrome Forecast
Issued by NWS Mt. Holly, NJ

Home | Current Version | Previous Version | Text Only | Print | Product List | Glossary On
Versions: 1 2 3 4 5 6 7 8 9 10 11 12 13 14 15
996
FTUS41 KPHI 270407 AAA
TAFABE
TAF AMD
KABE 270407Z 2704/2724 21004KT P6SM BKN150
      TEMPO 2705/2707 5SM SHRA OVC060
     FM271600 22009KT P6SM SCT050 PROB30 2720/2723 -SHRA BKN035=

USA.gov is the U.S. government's official web portal to all federal, state and local government web resources and services.